sensor_id;sensor_type;location;lat;lon;timestamp;pressure;altitude;pressure_sealevel;temperature;humidity
11952;BME280;6036;41.840;23.486;2022-11-20T00:00:00;90075.94;;;15.09;68.70
11952;BME280;6036;41.840;23.486;2022-11-20T00:02:25;90082.88;;;15.38;66.61
11952;BME280;6036;41.840;23.486;2022-11-20T00:04:51;90092.94;;;16.15;64.34
11952;BME280;6036;41.840;23.486;2022-11-20T00:07:16;90090.38;;;16.58;61.38
11952;BME280;6036;41.840;23.486;2022-11-20T00:09:42;90088.06;;;17.20;59.39
11952;BME280;6036;41.840;23.486;2022-11-20T00:12:07;90093.03;;;16.58;61.47
11952;BME280;6036;41.840;23.486;2022-11-20T00:14:33;90086.97;;;17.00;60.77
11952;BME280;6036;41.840;23.486;2022-11-20T00:16:58;90084.16;;;15.73;64.34
11952;BME280;6036;41.840;23.486;2022-11-20T00:19:24;90093.69;;;16.02;64.38
11952;BME280;6036;41.840;23.486;2022-11-20T00:21:49;90090.69;;;16.14;61.83
11952;BME280;6036;41.840;23.486;2022-11-20T00:24:16;90072.56;;;16.02;63.67
11952;BME280;6036;41.840;23.486;2022-11-20T00:26:42;90092.72;;;15.45;64.48
11952;BME280;6036;41.840;23.486;2022-11-20T00:29:08;90085.75;;;15.95;61.72
11952;BME280;6036;41.840;23.486;2022-11-20T00:31:35;90067.94;;;15.63;63.06
11952;BME280;6036;41.840;23.486;2022-11-20T00:34:00;90066.38;;;15.52;63.14
11952;BME280;6036;41.840;23.486;2022-11-20T00:36:28;90064.69;;;16.41;60.46
11952;BME280;6036;41.840;23.486;2022-11-20T00:38:56;90048.13;;;16.68;60.16
11952;BME280;6036;41.840;23.486;2022-11-20T00:41:22;90042.00;;;15.80;63.04
11952;BME280;6036;41.840;23.486;2022-11-20T00:43:48;90046.22;;;16.34;60.79
11952;BME280;6036;41.840;23.486;2022-11-20T00:46:19;90053.78;;;16.81;58.58
11952;BME280;6036;41.840;23.486;2022-11-20T00:48:45;90068.88;;;16.52;55.72
11952;BME280;6036;41.840;23.486;2022-11-20T00:51:15;90074.16;;;16.66;54.37
11952;BME280;6036;41.840;23.486;2022-11-20T00:53:41;90062.81;;;16.34;53.98
11952;BME280;6036;41.840;23.486;2022-11-20T00:56:10;90064.34;;;16.56;53.93
11952;BME280;6036;41.840;23.486;2022-11-20T00:58:40;90064.31;;;16.42;55.32
11952;BME280;6036;41.840;23.486;2022-11-20T01:01:14;90045.47;;;16.44;53.42
11952;BME280;6036;41.840;23.486;2022-11-20T01:03:43;90036.78;;;16.64;53.07
11952;BME280;6036;41.840;23.486;2022-11-20T01:06:10;90041.19;;;17.31;51.10
11952;BME280;6036;41.840;23.486;2022-11-20T01:08:37;90057.38;;;17.54;50.80
11952;BME280;6036;41.840;23.486;2022-11-20T01:11:06;90054.47;;;17.03;51.12
11952;BME280;6036;41.840;23.486;2022-11-20T01:13:32;90038.69;;;16.60;51.96
11952;BME280;6036;41.840;23.486;2022-11-20T01:18:31;90041.31;;;16.67;52.04
11952;BME280;6036;41.840;23.486;2022-11-20T01:21:02;90045.47;;;16.65;51.87
11952;BME280;6036;41.840;23.486;2022-11-20T01:23:31;90054.00;;;17.36;50.34
11952;BME280;6036;41.840;23.486;2022-11-20T01:25:56;90027.19;;;17.34;51.37
11952;BME280;6036;41.840;23.486;2022-11-20T01:28:21;90026.09;;;17.28;50.83
11952;BME280;6036;41.840;23.486;2022-11-20T01:30:47;90021.16;;;17.33;50.79
11952;BME280;6036;41.840;23.486;2022-11-20T01:33:12;90024.59;;;17.20;51.32
11952;BME280;6036;41.840;23.486;2022-11-20T01:35:38;90019.63;;;17.43;51.18
11952;BME280;6036;41.840;23.486;2022-11-20T01:38:03;90014.13;;;17.92;50.02
11952;BME280;6036;41.840;23.486;2022-11-20T01:40:28;90009.63;;;18.37;48.84
11952;BME280;6036;41.840;23.486;2022-11-20T01:43:10;90006.69;;;18.25;48.43
11952;BME280;6036;41.840;23.486;2022-11-20T01:46:02;90001.06;;;17.57;50.53
11952;BME280;6036;41.840;23.486;2022-11-20T01:48:39;90002.38;;;16.89;55.43
11952;BME280;6036;41.840;23.486;2022-11-20T01:51:25;89997.50;;;16.80;56.48
11952;BME280;6036;41.840;23.486;2022-11-20T01:53:54;89980.94;;;16.41;56.26
11952;BME280;6036;41.840;23.486;2022-11-20T01:56:22;89973.00;;;16.48;55.06
11952;BME280;6036;41.840;23.486;2022-11-20T01:58:54;89981.88;;;17.32;52.48
11952;BME280;6036;41.840;23.486;2022-11-20T02:01:22;89980.41;;;17.20;51.70
11952;BME280;6036;41.840;23.486;2022-11-20T02:03:49;89992.16;;;17.05;51.30
11952;BME280;6036;41.840;23.486;2022-11-20T02:06:48;89972.91;;;17.08;50.89
11952;BME280;6036;41.840;23.486;2022-11-20T02:09:15;89976.34;;;16.91;51.91
11952;BME280;6036;41.840;23.486;2022-11-20T02:11:41;89984.06;;;17.44;50.95
11952;BME280;6036;41.840;23.486;2022-11-20T02:14:07;89967.47;;;17.36;49.99
11952;BME280;6036;41.840;23.486;2022-11-20T02:16:43;89974.78;;;17.08;50.97
11952;BME280;6036;41.840;23.486;2022-11-20T02:19:20;89978.31;;;16.55;53.21
11952;BME280;6036;41.840;23.486;2022-11-20T02:24:39;89958.59;;;16.91;53.23
11952;BME280;6036;41.840;23.486;2022-11-20T02:27:08;89950.41;;;17.59;50.72
11952;BME280;6036;41.840;23.486;2022-11-20T02:29:42;89959.88;;;18.14;49.03
11952;BME280;6036;41.840;23.486;2022-11-20T02:34:44;89968.41;;;16.95;54.28
11952;BME280;6036;41.840;23.486;2022-11-20T02:37:09;89966.97;;;15.81;59.73
11952;BME280;6036;41.840;23.486;2022-11-20T02:39:35;89960.16;;;15.58;62.13
11952;BME280;6036;41.840;23.486;2022-11-20T02:42:01;89949.59;;;15.66;62.50
11952;BME280;6036;41.840;23.486;2022-11-20T02:44:27;89951.03;;;15.28;61.78
11952;BME280;6036;41.840;23.486;2022-11-20T02:46:52;89971.88;;;15.96;60.21
11952;BME280;6036;41.840;23.486;2022-11-20T02:49:18;89945.13;;;16.08;56.00
11952;BME280;6036;41.840;23.486;2022-11-20T02:51:43;89948.13;;;16.39;54.20
11952;BME280;6036;41.840;23.486;2022-11-20T02:54:09;89962.47;;;15.99;59.23
11952;BME280;6036;41.840;23.486;2022-11-20T02:56:38;89971.53;;;16.01;61.46
11952;BME280;6036;41.840;23.486;2022-11-20T02:59:03;89966.22;;;15.70;63.38
11952;BME280;6036;41.840;23.486;2022-11-20T03:01:29;89959.78;;;15.63;63.47
11952;BME280;6036;41.840;23.486;2022-11-20T03:03:55;89970.63;;;15.37;65.43
11952;BME280;6036;41.840;23.486;2022-11-20T03:06:21;89954.00;;;15.19;66.79
11952;BME280;6036;41.840;23.486;2022-11-20T03:08:47;89936.00;;;14.46;69.60
11952;BME280;6036;41.840;23.486;2022-11-20T03:11:12;89953.09;;;14.18;72.78
11952;BME280;6036;41.840;23.486;2022-11-20T03:13:38;89937.91;;;13.94;74.59
11952;BME280;6036;41.840;23.486;2022-11-20T03:16:15;89952.50;;;13.88;74.60
11952;BME280;6036;41.840;23.486;2022-11-20T03:18:42;89964.44;;;13.79;75.73
11952;BME280;6036;41.840;23.486;2022-11-20T03:21:08;89978.59;;;13.63;76.82
11952;BME280;6036;41.840;23.486;2022-11-20T03:23:35;89954.69;;;13.79;76.24
11952;BME280;6036;41.840;23.486;2022-11-20T03:28:41;89960.50;;;13.55;76.94
11952;BME280;6036;41.840;23.486;2022-11-20T03:31:12;89974.78;;;13.57;77.70
11952;BME280;6036;41.840;23.486;2022-11-20T03:33:39;89979.34;;;13.64;77.33
11952;BME280;6036;41.840;23.486;2022-11-20T03:36:07;89975.13;;;13.96;75.45
11952;BME280;6036;41.840;23.486;2022-11-20T03:38:33;89965.88;;;13.69;75.43
11952;BME280;6036;41.840;23.486;2022-11-20T03:41:00;89975.34;;;13.81;74.32
11952;BME280;6036;41.840;23.486;2022-11-20T03:43:26;89973.19;;;13.90;75.23
11952;BME280;6036;41.840;23.486;2022-11-20T03:45:52;89979.75;;;14.13;73.93
11952;BME280;6036;41.840;23.486;2022-11-20T03:48:17;89972.47;;;15.26;69.05
11952;BME280;6036;41.840;23.486;2022-11-20T03:50:42;89976.66;;;15.38;66.32
11952;BME280;6036;41.840;23.486;2022-11-20T03:53:08;89975.66;;;14.74;69.02
11952;BME280;6036;41.840;23.486;2022-11-20T03:55:33;89969.88;;;14.54;68.81
11952;BME280;6036;41.840;23.486;2022-11-20T03:57:58;89952.66;;;14.67;67.54
11952;BME280;6036;41.840;23.486;2022-11-20T04:00:24;89965.75;;;14.57;68.21
11952;BME280;6036;41.840;23.486;2022-11-20T04:02:49;89956.28;;;15.24;65.90
11952;BME280;6036;41.840;23.486;2022-11-20T04:05:15;89965.63;;;15.11;62.25
11952;BME280;6036;41.840;23.486;2022-11-20T04:07:40;89977.50;;;15.52;63.92
11952;BME280;6036;41.840;23.486;2022-11-20T04:10:06;89983.94;;;15.94;63.04
11952;BME280;6036;41.840;23.486;2022-11-20T04:12:32;89975.28;;;16.18;61.71
11952;BME280;6036;41.840;23.486;2022-11-20T04:14:58;89957.13;;;16.69;59.54
11952;BME280;6036;41.840;23.486;2022-11-20T04:17:24;89954.88;;;16.64;59.95
11952;BME280;6036;41.840;23.486;2022-11-20T04:19:49;89962.41;;;16.83;59.24
11952;BME280;6036;41.840;23.486;2022-11-20T04:22:14;89957.19;;;16.09;61.62
11952;BME280;6036;41.840;23.486;2022-11-20T04:24:40;89968.50;;;16.06;61.96
11952;BME280;6036;41.840;23.486;2022-11-20T04:27:06;89968.88;;;16.19;61.07
11952;BME280;6036;41.840;23.486;2022-11-20T04:29:31;89955.69;;;16.01;61.73
11952;BME280;6036;41.840;23.486;2022-11-20T04:31:57;89971.13;;;16.49;60.34
11952;BME280;6036;41.840;23.486;2022-11-20T04:34:22;89971.88;;;16.63;59.36
11952;BME280;6036;41.840;23.486;2022-11-20T04:36:47;89968.47;;;16.49;60.33
11952;BME280;6036;41.840;23.486;2022-11-20T04:39:14;89979.44;;;16.33;60.87
11952;BME280;6036;41.840;23.486;2022-11-20T04:41:40;89985.09;;;16.60;59.83
11952;BME280;6036;41.840;23.486;2022-11-20T04:44:06;89982.44;;;16.35;60.44
11952;BME280;6036;41.840;23.486;2022-11-20T04:46:37;89980.53;;;16.50;60.32
11952;BME280;6036;41.840;23.486;2022-11-20T04:49:03;89974.88;;;15.81;62.43
11952;BME280;6036;41.840;23.486;2022-11-20T04:51:28;89985.84;;;16.00;62.51
11952;BME280;6036;41.840;23.486;2022-11-20T04:53:54;89975.66;;;15.99;62.00
11952;BME280;6036;41.840;23.486;2022-11-20T04:56:19;89963.59;;;16.26;61.49
11952;BME280;6036;41.840;23.486;2022-11-20T04:58:45;89966.59;;;16.42;60.98
11952;BME280;6036;41.840;23.486;2022-11-20T05:01:20;89976.03;;;16.22;61.74
11952;BME280;6036;41.840;23.486;2022-11-20T05:03:46;89970.38;;;16.27;61.76
11952;BME280;6036;41.840;23.486;2022-11-20T05:06:14;89972.63;;;16.25;62.12
11952;BME280;6036;41.840;23.486;2022-11-20T05:08:40;89979.44;;;16.12;62.16
11952;BME280;6036;41.840;23.486;2022-11-20T05:11:08;89960.19;;;15.69;64.41
11952;BME280;6036;41.840;23.486;2022-11-20T05:13:34;89961.34;;;15.82;64.33
11952;BME280;6036;41.840;23.486;2022-11-20T05:16:07;89939.56;;;14.78;68.43
11952;BME280;6036;41.840;23.486;2022-11-20T05:18:34;89952.47;;;15.08;67.43
11952;BME280;6036;41.840;23.486;2022-11-20T05:21:00;89958.69;;;15.72;65.21
11952;BME280;6036;41.840;23.486;2022-11-20T05:23:26;89957.19;;;16.02;64.23
11952;BME280;6036;41.840;23.486;2022-11-20T05:25:53;89964.72;;;16.07;63.64
11952;BME280;6036;41.840;23.486;2022-11-20T05:28:18;89958.31;;;16.26;62.92
11952;BME280;6036;41.840;23.486;2022-11-20T05:30:44;89956.44;;;16.23;63.33
11952;BME280;6036;41.840;23.486;2022-11-20T05:33:09;89982.09;;;16.12;64.07
11952;BME280;6036;41.840;23.486;2022-11-20T05:35:35;89982.34;;;15.50;66.02
11952;BME280;6036;41.840;23.486;2022-11-20T05:38:00;89945.69;;;15.03;67.82
11952;BME280;6036;41.840;23.486;2022-11-20T05:40:26;89983.03;;;15.33;67.21
11952;BME280;6036;41.840;23.486;2022-11-20T05:42:51;89984.19;;;15.36;66.87
11952;BME280;6036;41.840;23.486;2022-11-20T05:45:16;89980.81;;;15.42;66.94
11952;BME280;6036;41.840;23.486;2022-11-20T05:47:42;90000.91;;;15.86;65.25
11952;BME280;6036;41.840;23.486;2022-11-20T05:50:07;90008.84;;;16.28;63.47
11952;BME280;6036;41.840;23.486;2022-11-20T05:52:33;90018.28;;;16.36;63.13
11952;BME280;6036;41.840;23.486;2022-11-20T05:54:58;90014.84;;;15.86;64.86
11952;BME280;6036;41.840;23.486;2022-11-20T05:57:24;90034.44;;;15.75;65.64
11952;BME280;6036;41.840;23.486;2022-11-20T05:59:49;90032.94;;;15.84;64.69
11952;BME280;6036;41.840;23.486;2022-11-20T06:02:14;90009.91;;;15.78;65.33
11952;BME280;6036;41.840;23.486;2022-11-20T06:04:40;90030.28;;;15.70;66.07
11952;BME280;6036;41.840;23.486;2022-11-20T06:07:06;90039.34;;;15.83;65.41
11952;BME280;6036;41.840;23.486;2022-11-20T06:09:31;90030.34;;;16.16;64.12
11952;BME280;6036;41.840;23.486;2022-11-20T06:11:57;90017.50;;;15.86;64.83
11952;BME280;6036;41.840;23.486;2022-11-20T06:14:22;90023.34;;;15.30;66.88
11952;BME280;6036;41.840;23.486;2022-11-20T06:16:48;90030.25;;;15.63;66.50
11952;BME280;6036;41.840;23.486;2022-11-20T06:19:13;90026.19;;;16.08;64.84
11952;BME280;6036;41.840;23.486;2022-11-20T06:21:40;90024.28;;;15.94;65.35
11952;BME280;6036;41.840;23.486;2022-11-20T06:24:05;90026.56;;;16.13;64.47
11952;BME280;6036;41.840;23.486;2022-11-20T06:26:31;90023.97;;;16.56;62.97
11952;BME280;6036;41.840;23.486;2022-11-20T06:28:56;90028.44;;;16.98;61.91
11952;BME280;6036;41.840;23.486;2022-11-20T06:31:23;90031.81;;;17.02;61.69
11952;BME280;6036;41.840;23.486;2022-11-20T06:33:50;90012.56;;;16.98;62.12
11952;BME280;6036;41.840;23.486;2022-11-20T06:36:18;90003.09;;;17.04;61.89
11952;BME280;6036;41.840;23.486;2022-11-20T06:38:44;90017.91;;;16.16;64.22
11952;BME280;6036;41.840;23.486;2022-11-20T06:41:15;90028.00;;;15.76;66.69
11952;BME280;6036;41.840;23.486;2022-11-20T06:43:42;90028.84;;;16.43;64.59
11952;BME280;6036;41.840;23.486;2022-11-20T06:46:09;90009.22;;;16.51;63.86
11952;BME280;6036;41.840;23.486;2022-11-20T06:48:35;90009.88;;;15.49;68.02
11952;BME280;6036;41.840;23.486;2022-11-20T06:51:03;89994.66;;;14.43;73.06
11952;BME280;6036;41.840;23.486;2022-11-20T06:53:29;90008.63;;;14.50;74.15
11952;BME280;6036;41.840;23.486;2022-11-20T06:55:56;90022.78;;;14.93;71.21
11952;BME280;6036;41.840;23.486;2022-11-20T06:58:21;90010.63;;;14.71;71.99
11952;BME280;6036;41.840;23.486;2022-11-20T07:00:47;90015.88;;;14.67;73.13
11952;BME280;6036;41.840;23.486;2022-11-20T07:03:12;90030.13;;;14.63;74.01
11952;BME280;6036;41.840;23.486;2022-11-20T07:05:38;90021.84;;;14.61;73.07
11952;BME280;6036;41.840;23.486;2022-11-20T07:08:05;90011.66;;;14.56;74.79
11952;BME280;6036;41.840;23.486;2022-11-20T07:10:31;90013.56;;;15.41;71.51
11952;BME280;6036;41.840;23.486;2022-11-20T07:12:57;90048.59;;;15.38;70.66
11952;BME280;6036;41.840;23.486;2022-11-20T07:15:23;90031.66;;;14.64;74.17
11952;BME280;6036;41.840;23.486;2022-11-20T07:17:49;90031.41;;;14.86;73.72
11952;BME280;6036;41.840;23.486;2022-11-20T07:20:15;90038.34;;;15.16;72.13
11952;BME280;6036;41.840;23.486;2022-11-20T07:22:41;90029.78;;;15.43;71.00
11952;BME280;6036;41.840;23.486;2022-11-20T07:25:08;90029.50;;;17.25;63.59
11952;BME280;6036;41.840;23.486;2022-11-20T07:27:33;90017.53;;;16.04;66.59
11952;BME280;6036;41.840;23.486;2022-11-20T07:29:59;90031.44;;;14.90;71.42
11952;BME280;6036;41.840;23.486;2022-11-20T07:32:25;90036.03;;;14.46;73.92
11952;BME280;6036;41.840;23.486;2022-11-20T07:34:51;90053.81;;;14.12;76.38
11952;BME280;6036;41.840;23.486;2022-11-20T07:37:17;90014.13;;;14.31;75.50
11952;BME280;6036;41.840;23.486;2022-11-20T07:39:42;90027.97;;;14.28;74.69
11952;BME280;6036;41.840;23.486;2022-11-20T07:42:08;90061.22;;;14.43;74.67
11952;BME280;6036;41.840;23.486;2022-11-20T07:44:34;90053.13;;;14.66;73.90
11952;BME280;6036;41.840;23.486;2022-11-20T07:47:00;90045.91;;;15.21;71.71
11952;BME280;6036;41.840;23.486;2022-11-20T07:49:25;90058.72;;;15.29;71.22
11952;BME280;6036;41.840;23.486;2022-11-20T07:51:51;90053.38;;;14.47;74.65
11952;BME280;6036;41.840;23.486;2022-11-20T07:54:19;90053.50;;;14.20;76.17
11952;BME280;6036;41.840;23.486;2022-11-20T07:56:44;90071.41;;;14.08;77.17
11952;BME280;6036;41.840;23.486;2022-11-20T07:59:10;90040.00;;;14.25;76.56
11952;BME280;6036;41.840;23.486;2022-11-20T08:01:37;90046.72;;;14.67;74.20
11952;BME280;6036;41.840;23.486;2022-11-20T08:04:03;90038.97;;;15.95;69.70
11952;BME280;6036;41.840;23.486;2022-11-20T08:06:28;90034.34;;;17.54;63.60
11952;BME280;6036;41.840;23.486;2022-11-20T08:08:53;90044.66;;;19.07;57.26
11952;BME280;6036;41.840;23.486;2022-11-20T08:11:19;90053.78;;;17.99;60.57
11952;BME280;6036;41.840;23.486;2022-11-20T08:14:03;90056.38;;;16.07;67.60
11952;BME280;6036;41.840;23.486;2022-11-20T08:16:45;90052.44;;;15.48;70.17
11952;BME280;6036;41.840;23.486;2022-11-20T08:19:12;90051.63;;;15.44;71.17
11952;BME280;6036;41.840;23.486;2022-11-20T08:21:38;90056.31;;;14.96;73.28
11952;BME280;6036;41.840;23.486;2022-11-20T08:24:04;90054.75;;;14.91;73.91
11952;BME280;6036;41.840;23.486;2022-11-20T08:26:29;90028.53;;;15.16;72.50
11952;BME280;6036;41.840;23.486;2022-11-20T08:28:56;90060.94;;;15.13;72.54
11952;BME280;6036;41.840;23.486;2022-11-20T08:31:23;90062.69;;;14.95;73.67
11952;BME280;6036;41.840;23.486;2022-11-20T08:33:49;90051.66;;;14.79;74.42
11952;BME280;6036;41.840;23.486;2022-11-20T08:36:15;90063.91;;;14.50;76.36
11952;BME280;6036;41.840;23.486;2022-11-20T08:38:41;90031.31;;;14.69;76.42
11952;BME280;6036;41.840;23.486;2022-11-20T08:41:06;90035.78;;;14.65;76.56
11952;BME280;6036;41.840;23.486;2022-11-20T08:43:55;90039.50;;;14.09;79.47
11952;BME280;6036;41.840;23.486;2022-11-20T08:46:22;90031.22;;;14.11;80.57
11952;BME280;6036;41.840;23.486;2022-11-20T08:48:47;90036.88;;;14.09;81.24
11952;BME280;6036;41.840;23.486;2022-11-20T08:51:13;90035.19;;;13.87;82.60
11952;BME280;6036;41.840;23.486;2022-11-20T08:53:39;90033.78;;;14.00;82.51
11952;BME280;6036;41.840;23.486;2022-11-20T08:56:05;90025.81;;;13.93;82.77
11952;BME280;6036;41.840;23.486;2022-11-20T08:58:31;90030.50;;;13.70;86.17
11952;BME280;6036;41.840;23.486;2022-11-20T09:00:56;90033.59;;;13.83;85.56
11952;BME280;6036;41.840;23.486;2022-11-20T09:03:22;90030.94;;;14.19;83.72
11952;BME280;6036;41.840;23.486;2022-11-20T09:05:47;90035.06;;;14.20;83.47
11952;BME280;6036;41.840;23.486;2022-11-20T09:08:13;90032.38;;;14.61;80.45
11952;BME280;6036;41.840;23.486;2022-11-20T09:10:38;90039.63;;;14.27;82.88
11952;BME280;6036;41.840;23.486;2022-11-20T09:13:07;90046.63;;;14.49;82.41
11952;BME280;6036;41.840;23.486;2022-11-20T09:15:33;90043.44;;;14.84;79.47
11952;BME280;6036;41.840;23.486;2022-11-20T09:18:01;90046.78;;;14.30;81.56
11952;BME280;6036;41.840;23.486;2022-11-20T09:20:28;90043.59;;;14.51;81.91
11952;BME280;6036;41.840;23.486;2022-11-20T09:22:55;90050.56;;;14.80;79.31
11952;BME280;6036;41.840;23.486;2022-11-20T09:25:20;90041.72;;;14.51;80.60
11952;BME280;6036;41.840;23.486;2022-11-20T09:27:46;90031.16;;;14.44;81.53
11952;BME280;6036;41.840;23.486;2022-11-20T09:30:13;90044.66;;;15.01;79.40
11952;BME280;6036;41.840;23.486;2022-11-20T09:32:39;90033.53;;;15.35;77.50
11952;BME280;6036;41.840;23.486;2022-11-20T09:35:05;90039.56;;;14.67;81.30
11952;BME280;6036;41.840;23.486;2022-11-20T09:37:31;90037.94;;;15.10;79.20
11952;BME280;6036;41.840;23.486;2022-11-20T09:39:56;90040.06;;;14.87;79.78
11952;BME280;6036;41.840;23.486;2022-11-20T09:42:41;90031.28;;;14.65;80.67
11952;BME280;6036;41.840;23.486;2022-11-20T09:48:21;90029.94;;;14.34;83.36
11952;BME280;6036;41.840;23.486;2022-11-20T09:51:00;90011.53;;;14.38;82.25
11952;BME280;6036;41.840;23.486;2022-11-20T09:56:33;90036.44;;;15.13;79.38
11952;BME280;6036;41.840;23.486;2022-11-20T09:59:02;90037.34;;;14.73;81.08
11952;BME280;6036;41.840;23.486;2022-11-20T10:01:32;90034.97;;;14.54;80.40
11952;BME280;6036;41.840;23.486;2022-11-20T10:04:18;90026.16;;;14.90;79.82
11952;BME280;6036;41.840;23.486;2022-11-20T10:06:56;90024.69;;;14.99;79.20
11952;BME280;6036;41.840;23.486;2022-11-20T10:09:40;90016.91;;;15.24;78.51
11952;BME280;6036;41.840;23.486;2022-11-20T10:12:22;90007.78;;;15.04;79.13
11952;BME280;6036;41.840;23.486;2022-11-20T10:15:01;90007.94;;;14.60;80.52
11952;BME280;6036;41.840;23.486;2022-11-20T10:17:52;90006.97;;;14.86;78.71
11952;BME280;6036;41.840;23.486;2022-11-20T10:25:38;90006.81;;;14.61;80.41
11952;BME280;6036;41.840;23.486;2022-11-20T10:31:00;90001.94;;;15.53;76.79
11952;BME280;6036;41.840;23.486;2022-11-20T10:33:32;90000.88;;;15.72;75.40
11952;BME280;6036;41.840;23.486;2022-11-20T10:38:48;89988.06;;;15.81;74.61
11952;BME280;6036;41.840;23.486;2022-11-20T10:41:26;89997.03;;;15.44;74.23
11952;BME280;6036;41.840;23.486;2022-11-20T10:44:14;89986.41;;;15.20;77.23
11952;BME280;6036;41.840;23.486;2022-11-20T10:47:00;89986.56;;;15.90;74.61
11952;BME280;6036;41.840;23.486;2022-11-20T10:49:26;89985.22;;;15.14;77.54
11952;BME280;6036;41.840;23.486;2022-11-20T10:52:15;89979.91;;;14.96;77.27
11952;BME280;6036;41.840;23.486;2022-11-20T11:00:09;89982.00;;;14.15;80.97
11952;BME280;6036;41.840;23.486;2022-11-20T11:07:54;89961.03;;;14.22;81.22
11952;BME280;6036;41.840;23.486;2022-11-20T11:12:57;89978.00;;;14.96;77.62
11952;BME280;6036;41.840;23.486;2022-11-20T11:15:39;89978.97;;;14.60;79.11
11952;BME280;6036;41.840;23.486;2022-11-20T11:18:08;89972.00;;;14.96;77.31
11952;BME280;6036;41.840;23.486;2022-11-20T11:20:33;89985.13;;;14.89;77.07
11952;BME280;6036;41.840;23.486;2022-11-20T11:22:59;89980.00;;;14.42;78.03
11952;BME280;6036;41.840;23.486;2022-11-20T11:25:32;89976.94;;;14.40;79.52
11952;BME280;6036;41.840;23.486;2022-11-20T11:28:24;89981.06;;;15.09;78.55
11952;BME280;6036;41.840;23.486;2022-11-20T11:30:51;89975.81;;;15.09;78.76
11952;BME280;6036;41.840;23.486;2022-11-20T11:33:22;89972.13;;;15.38;77.01
11952;BME280;6036;41.840;23.486;2022-11-20T11:36:03;89965.09;;;16.34;73.95
11952;BME280;6036;41.840;23.486;2022-11-20T11:38:36;89969.22;;;16.77;71.72
11952;BME280;6036;41.840;23.486;2022-11-20T11:41:04;89970.97;;;17.23;69.27
11952;BME280;6036;41.840;23.486;2022-11-20T11:43:33;89977.28;;;17.43;68.28
11952;BME280;6036;41.840;23.486;2022-11-20T11:54:58;89983.28;;;17.50;68.17
11952;BME280;6036;41.840;23.486;2022-11-20T12:00:15;90001.81;;;17.54;68.50
11952;BME280;6036;41.840;23.486;2022-11-20T12:05:23;90007.59;;;17.14;69.79
11952;BME280;6036;41.840;23.486;2022-11-20T12:07:59;90012.63;;;16.83;71.22
11952;BME280;6036;41.840;23.486;2022-11-20T12:13:25;90022.06;;;16.39;73.74
11952;BME280;6036;41.840;23.486;2022-11-20T12:15:55;90013.75;;;16.15;74.16
11952;BME280;6036;41.840;23.486;2022-11-20T12:18:22;90020.53;;;16.27;74.02
11952;BME280;6036;41.840;23.486;2022-11-20T12:21:07;90020.91;;;16.25;74.38
11952;BME280;6036;41.840;23.486;2022-11-20T12:26:13;90025.09;;;16.65;72.29
11952;BME280;6036;41.840;23.486;2022-11-20T12:28:58;90022.81;;;16.67;72.29
11952;BME280;6036;41.840;23.486;2022-11-20T12:37:55;90037.19;;;16.66;71.71
11952;BME280;6036;41.840;23.486;2022-11-20T12:40:38;90025.09;;;16.58;71.54
11952;BME280;6036;41.840;23.486;2022-11-20T12:43:23;90022.81;;;16.32;72.81
11952;BME280;6036;41.840;23.486;2022-11-20T12:46:18;90024.31;;;16.75;70.87
11952;BME280;6036;41.840;23.486;2022-11-20T12:49:08;90029.56;;;17.00;69.73
11952;BME280;6036;41.840;23.486;2022-11-20T13:02:29;90005.78;;;16.89;70.45
11952;BME280;6036;41.840;23.486;2022-11-20T13:07:40;89996.38;;;16.81;70.08
11952;BME280;6036;41.840;23.486;2022-11-20T13:11:04;89979.75;;;16.88;69.35
11952;BME280;6036;41.840;23.486;2022-11-20T13:18:25;89985.38;;;15.49;76.39
11952;BME280;6036;41.840;23.486;2022-11-20T13:20:51;89977.31;;;15.10;78.81
11952;BME280;6036;41.840;23.486;2022-11-20T13:23:26;89970.13;;;15.00;80.22
11952;BME280;6036;41.840;23.486;2022-11-20T13:26:13;89955.06;;;14.93;80.08
11952;BME280;6036;41.840;23.486;2022-11-20T13:28:39;89957.97;;;14.16;83.38
11952;BME280;6036;41.840;23.486;2022-11-20T13:31:11;89954.22;;;13.66;86.08
11952;BME280;6036;41.840;23.486;2022-11-20T13:33:52;89957.88;;;13.55;88.05
11952;BME280;6036;41.840;23.486;2022-11-20T13:36:26;89953.16;;;13.75;87.11
11952;BME280;6036;41.840;23.486;2022-11-20T13:38:54;89946.47;;;14.31;84.74
11952;BME280;6036;41.840;23.486;2022-11-20T13:41:36;89961.97;;;13.96;83.93
11952;BME280;6036;41.840;23.486;2022-11-20T13:46:55;89938.81;;;13.65;83.33
11952;BME280;6036;41.840;23.486;2022-11-20T13:49:27;89939.00;;;13.46;82.99
11952;BME280;6036;41.840;23.486;2022-11-20T13:52:13;89945.31;;;13.04;82.05
11952;BME280;6036;41.840;23.486;2022-11-20T14:00:22;89935.44;;;14.22;76.73
11952;BME280;6036;41.840;23.486;2022-11-20T14:05:37;89927.31;;;15.38;69.57
11952;BME280;6036;41.840;23.486;2022-11-20T14:08:05;89923.09;;;15.06;68.02
11952;BME280;6036;41.840;23.486;2022-11-20T14:10:31;89926.91;;;15.22;68.93
11952;BME280;6036;41.840;23.486;2022-11-20T14:12:57;89899.91;;;15.75;67.85
11952;BME280;6036;41.840;23.486;2022-11-20T14:15:32;89902.13;;;16.08;67.25
11952;BME280;6036;41.840;23.486;2022-11-20T14:17:58;89893.88;;;15.92;68.05
11952;BME280;6036;41.840;23.486;2022-11-20T14:20:29;89901.38;;;15.61;68.34
11952;BME280;6036;41.840;23.486;2022-11-20T14:22:56;89901.00;;;15.81;68.10
11952;BME280;6036;41.840;23.486;2022-11-20T14:25:26;89907.44;;;15.87;67.94
11952;BME280;6036;41.840;23.486;2022-11-20T14:27:57;89916.03;;;15.38;69.50
11952;BME280;6036;41.840;23.486;2022-11-20T14:30:49;89908.72;;;14.89;71.41
11952;BME280;6036;41.840;23.486;2022-11-20T14:33:15;89914.34;;;14.84;71.15
11952;BME280;6036;41.840;23.486;2022-11-20T14:35:49;89916.84;;;15.45;68.46
11952;BME280;6036;41.840;23.486;2022-11-20T14:38:17;89919.88;;;16.04;65.58
11952;BME280;6036;41.840;23.486;2022-11-20T14:40:44;89927.00;;;16.21;64.86
11952;BME280;6036;41.840;23.486;2022-11-20T14:45:46;89920.94;;;16.49;66.60
11952;BME280;6036;41.840;23.486;2022-11-20T14:48:13;89904.34;;;16.55;66.86